Time;durP1;ratioP1;P1;durP2;ratioP2;P2;SDS_P1;SDS_P2;PMS_P1;PMS_P2;Temp;Humidity;BMP_temperature;BMP_pressure;BME280_temperature;BME280_humidity;BME280_pressure;Samples;Min_cycle;Max_cycle;Signal;HPM_P1;HPM_P2
2022/06/09 00:04:21;;;;;;;;;23.33;19.67;;;;;;;;6493385;39;8878;-58
2022/06/09 00:10:31;;;;;;;;;20.00;19.00;;;;;;;;6492147;46;8894;-59
2022/06/09 00:16:38;;;;;;;;;21.33;19.33;;;;;;;;6494049;39;8887;-58
2022/06/09 00:22:50;;;;;;;;;20.67;18.33;;;;;;;;6492186;46;8968;-58
2022/06/09 00:37:06;;;;;;;;;22.33;22.00;;;;;;;;6492112;39;9065;-58
2022/06/09 01:06:45;;;;;;;;;16.33;16.00;;;;;;;;6492233;46;8895;-58
2022/06/09 01:29:32;;;;;;;;;19.67;19.67;;;;;;;;6489278;31;8978;-62
2022/06/09 01:37:12;;;;;;;;;18.67;15.67;;;;;;;;6489588;39;8968;-59
2022/06/09 01:44:10;;;;;;;;;17.00;15.67;;;;;;;;6491237;39;8926;-59
2022/06/09 02:05:41;;;;;;;;;18.33;17.67;;;;;;;;6494463;39;8925;-60
2022/06/09 02:12:50;;;;;;;;;18.33;17.67;;;;;;;;6494557;39;9465;-58
2022/06/09 02:20:42;;;;;;;;;21.33;20.00;;;;;;;;6493277;39;10080;-59
2022/06/09 02:27:49;;;;;;;;;16.67;16.67;;;;;;;;6492370;46;8957;-59
2022/06/09 02:41:56;;;;;;;;;24.00;22.00;;;;;;;;6492532;31;9052;-59
2022/06/09 02:49:22;;;;;;;;;21.33;21.33;;;;;;;;6492495;31;8929;-58
2022/06/09 02:56:34;;;;;;;;;20.33;20.33;;;;;;;;6492824;39;8890;-60
2022/06/09 03:10:47;;;;;;;;;11.00;10.00;;;;;;;;6487803;39;8898;-59
2022/06/09 03:16:56;;;;;;;;;23.00;17.33;;;;;;;;6489595;31;8978;-59
2022/06/09 03:23:17;;;;;;;;;19.67;18.33;;;;;;;;6485951;39;9052;-58
2022/06/09 03:30:45;;;;;;;;;19.33;17.00;;;;;;;;6488307;46;8935;-58
2022/06/09 03:37:00;;;;;;;;;20.33;18.67;;;;;;;;6489187;31;9077;-58
2022/06/09 03:43:10;;;;;;;;;18.00;18.00;;;;;;;;6489038;39;8835;-59
2022/06/09 03:49:28;;;;;;;;;14.33;14.33;;;;;;;;6487926;46;8954;-58
2022/06/09 03:55:53;;;;;;;;;20.00;20.00;;;;;;;;6489772;39;8973;-58
2022/06/09 04:02:28;;;;;;;;;21.00;17.00;;;;;;;;6464910;39;9037;-58
2022/06/09 04:08:33;;;;;;;;;21.00;20.33;;;;;;;;6493332;39;8915;-58
2022/06/09 04:14:35;;;;;;;;;24.00;21.33;;;;;;;;6493855;31;8975;-59
2022/06/09 04:20:37;;;;;;;;;16.33;16.33;;;;;;;;6493879;39;8950;-59
2022/06/09 12:04:47;;;;;;;;;6.50;6.00;;;;;;;;6492049;31;9061;-58
2022/06/09 12:11:01;;;;;;;;;8.50;7.00;;;;;;;;6490171;39;9145;-59
2022/06/09 12:17:08;;;;;;;;;8.00;8.00;;;;;;;;6496553;31;8826;-59
2022/06/09 12:23:31;;;;;;;;;9.00;7.50;;;;;;;;6490506;39;8930;-59
2022/06/09 12:29:34;;;;;;;;;9.25;9.00;;;;;;;;6487769;31;8909;-58
2022/06/09 12:35:59;;;;;;;;;6.25;6.25;;;;;;;;6490108;31;8890;-59
2022/06/09 12:42:20;;;;;;;;;11.75;11.75;;;;;;;;6490906;39;8992;-60
2022/06/09 12:48:28;;;;;;;;;9.00;6.75;;;;;;;;6491103;31;8862;-59
2022/06/09 12:54:40;;;;;;;;;8.00;7.25;;;;;;;;6491184;31;8906;-58
2022/06/09 13:00:56;;;;;;;;;8.00;8.00;;;;;;;;6492425;31;8904;-58
2022/06/09 13:07:00;;;;;;;;;10.50;10.50;;;;;;;;6489704;39;8932;-58
2022/06/09 13:13:13;;;;;;;;;9.75;8.25;;;;;;;;6490997;39;8939;-59
2022/06/09 13:19:19;;;;;;;;;8.00;8.00;;;;;;;;6491597;39;8958;-57
2022/06/09 13:25:25;;;;;;;;;7.50;7.50;;;;;;;;6491945;31;8888;-58
2022/06/09 13:31:30;;;;;;;;;7.00;7.00;;;;;;;;6492079;39;8908;-59
2022/06/09 13:37:43;;;;;;;;;8.00;8.00;;;;;;;;6486753;39;8928;-57
2022/06/09 13:43:51;;;;;;;;;9.00;9.00;;;;;;;;6491385;46;8845;-58
2022/06/09 13:50:21;;;;;;;;;7.50;7.50;;;;;;;;6492891;39;8813;-58
2022/06/09 13:56:24;;;;;;;;;10.50;10.50;;;;;;;;6493415;31;9054;-59
2022/06/09 14:02:40;;;;;;;;;11.50;11.50;;;;;;;;6493144;39;9014;-59
2022/06/09 14:08:46;;;;;;;;;8.00;8.00;;;;;;;;6492010;31;8905;-58
2022/06/09 14:14:49;;;;;;;;;9.75;9.50;;;;;;;;6492723;46;8956;-59
2022/06/09 14:20:52;;;;;;;;;11.75;11.75;;;;;;;;6492941;39;9004;-57
2022/06/09 14:26:55;;;;;;;;;9.00;9.00;;;;;;;;6491601;47;8980;-58
2022/06/09 14:33:02;;;;;;;;;10.50;10.50;;;;;;;;6493300;39;8884;-58
2022/06/09 14:39:09;;;;;;;;;8.50;8.25;;;;;;;;6491172;47;8956;-59
2022/06/09 14:45:13;;;;;;;;;8.75;8.75;;;;;;;;6491655;39;8844;-60
2022/06/09 14:51:15;;;;;;;;;12.75;11.50;;;;;;;;6491350;31;8884;-59
2022/06/09 14:57:18;;;;;;;;;9.75;9.75;;;;;;;;6491091;47;8864;-59
2022/06/09 15:03:21;;;;;;;;;8.50;5.25;;;;;;;;6492226;47;8967;-59
2022/06/09 15:09:34;;;;;;;;;9.00;9.00;;;;;;;;6494155;31;8890;-58
2022/06/09 15:15:38;;;;;;;;;10.75;10.75;;;;;;;;6494160;31;8980;-59
2022/06/09 15:21:42;;;;;;;;;12.00;12.00;;;;;;;;6494072;39;8977;-59
2022/06/09 15:27:44;;;;;;;;;14.67;13.33;;;;;;;;6493840;39;8991;-59
2022/06/09 15:33:47;;;;;;;;;21.67;20.00;;;;;;;;6494385;39;8892;-60
2022/06/09 15:39:49;;;;;;;;;18.00;18.00;;;;;;;;6493640;39;8852;-58
2022/06/09 15:45:52;;;;;;;;;18.67;18.00;;;;;;;;6494633;39;8856;-59
2022/06/09 15:51:55;;;;;;;;;20.00;18.00;;;;;;;;6493414;39;8885;-58
2022/06/09 15:57:57;;;;;;;;;23.33;22.33;;;;;;;;6493771;39;8985;-59
2022/06/09 16:03:59;;;;;;;;;22.67;21.00;;;;;;;;6494608;31;8888;-58
2022/06/09 16:10:01;;;;;;;;;18.00;17.00;;;;;;;;6493469;46;8869;-60
2022/06/09 16:16:04;;;;;;;;;14.67;13.67;;;;;;;;6493829;46;8947;-59
2022/06/09 16:22:06;;;;;;;;;18.67;15.67;;;;;;;;6494352;31;9019;-60
2022/06/09 16:28:11;;;;;;;;;18.33;18.33;;;;;;;;6493364;46;8880;-59
2022/06/09 16:34:13;;;;;;;;;20.33;19.33;;;;;;;;6538971;36;8919;-59
2022/06/09 16:40:26;;;;;;;;;21.33;20.00;;;;;;;;6493004;39;9019;-59
2022/06/09 16:46:28;;;;;;;;;20.00;17.33;;;;;;;;6494320;39;8809;-60
2022/06/09 16:52:32;;;;;;;;;21.00;21.00;;;;;;;;6493418;31;9903;-59
2022/06/09 16:58:34;;;;;;;;;21.33;20.67;;;;;;;;6491612;46;8950;-59
2022/06/09 17:04:36;;;;;;;;;25.00;25.00;;;;;;;;6492818;31;9011;-59
2022/06/09 17:10:41;;;;;;;;;21.00;20.67;;;;;;;;6491710;36;8869;-59
2022/06/09 17:16:46;;;;;;;;;15.67;15.67;;;;;;;;6491236;46;8871;-60
2022/06/09 17:22:49;;;;;;;;;20.33;20.33;;;;;;;;6491576;31;9018;-59
2022/06/09 17:28:53;;;;;;;;;21.67;21.67;;;;;;;;6491255;39;9554;-59
2022/06/09 17:34:55;;;;;;;;;24.33;22.00;;;;;;;;6491303;46;8869;-61
2022/06/09 17:40:58;;;;;;;;;32.00;30.33;;;;;;;;6491119;39;8922;-58
2022/06/09 17:47:00;;;;;;;;;24.67;24.33;;;;;;;;6491990;39;8901;-60
2022/06/09 17:53:04;;;;;;;;;26.33;25.67;;;;;;;;6490671;39;8932;-59
2022/06/09 17:59:08;;;;;;;;;27.00;26.50;;;;;;;;6490536;46;8872;-58
2022/06/09 18:05:11;;;;;;;;;26.33;25.33;;;;;;;;6490743;47;8906;-59
2022/06/09 18:11:17;;;;;;;;;25.00;25.00;;;;;;;;6490612;47;8892;-59
2022/06/09 18:17:19;;;;;;;;;24.67;22.00;;;;;;;;6490649;39;9019;-60
2022/06/09 18:23:24;;;;;;;;;30.00;28.67;;;;;;;;6489356;39;8881;-59
2022/06/09 18:29:27;;;;;;;;;30.33;26.33;;;;;;;;6489592;39;9961;-59
2022/06/09 18:35:29;;;;;;;;;25.67;24.33;;;;;;;;6489362;39;8861;-59
2022/06/09 18:41:31;;;;;;;;;24.33;23.33;;;;;;;;6490650;36;8908;-60
2022/06/09 18:47:34;;;;;;;;;28.33;24.67;;;;;;;;6491261;36;8849;-59
2022/06/09 18:53:36;;;;;;;;;26.33;22.67;;;;;;;;6491952;39;8878;-59
2022/06/09 18:59:39;;;;;;;;;31.00;27.33;;;;;;;;6492145;36;8962;-58
2022/06/09 19:05:46;;;;;;;;;26.67;25.33;;;;;;;;6491643;46;8903;-60
2022/06/09 19:11:48;;;;;;;;;27.67;26.33;;;;;;;;6491107;39;8863;-59
2022/06/09 19:17:50;;;;;;;;;23.00;20.00;;;;;;;;6491410;46;8958;-60
2022/06/09 19:23:52;;;;;;;;;24.00;24.00;;;;;;;;6490182;39;8983;-59
2022/06/09 19:29:54;;;;;;;;;24.00;23.33;;;;;;;;6491007;31;8890;-59
2022/06/09 19:36:00;;;;;;;;;25.00;23.67;;;;;;;;6490960;39;8982;-59
2022/06/09 19:42:02;;;;;;;;;22.33;22.33;;;;;;;;6490866;31;9042;-59
2022/06/09 19:48:06;;;;;;;;;22.67;20.33;;;;;;;;6491113;39;9526;-59
2022/06/09 19:54:10;;;;;;;;;26.67;25.00;;;;;;;;6490752;39;8855;-59
2022/06/09 20:00:22;;;;;;;;;21.00;19.67;;;;;;;;6491470;39;9010;-60
2022/06/09 20:06:27;;;;;;;;;25.67;23.33;;;;;;;;6490994;39;8874;-58
2022/06/09 20:12:29;;;;;;;;;26.00;23.33;;;;;;;;6490422;39;8938;-60
2022/06/09 20:18:32;;;;;;;;;21.67;21.67;;;;;;;;6491227;31;9016;-61
2022/06/09 20:24:35;;;;;;;;;24.67;22.67;;;;;;;;6490812;31;8854;-59
2022/06/09 20:30:39;;;;;;;;;21.33;21.33;;;;;;;;6490866;39;8896;-59
2022/06/09 20:36:42;;;;;;;;;20.33;20.33;;;;;;;;6490771;46;8874;-59
2022/06/09 20:42:44;;;;;;;;;22.00;18.67;;;;;;;;6490632;31;8878;-59
2022/06/09 20:49:04;;;;;;;;;20.33;20.33;;;;;;;;6490831;39;8882;-59
2022/06/09 20:55:09;;;;;;;;;18.33;18.33;;;;;;;;6491497;36;8921;-59
2022/06/09 21:01:11;;;;;;;;;21.00;19.33;;;;;;;;6490732;39;9077;-60
2022/06/09 21:07:15;;;;;;;;;16.67;16.67;;;;;;;;6490991;39;8889;-59
2022/06/09 21:19:38;;;;;;;;;17.33;17.33;;;;;;;;6491141;31;8921;-58
2022/06/09 21:25:40;;;;;;;;;17.33;17.33;;;;;;;;6490182;46;8957;-59
2022/06/09 21:31:42;;;;;;;;;22.67;20.67;;;;;;;;6489902;46;8877;-59
2022/06/09 21:37:46;;;;;;;;;22.00;21.33;;;;;;;;6493981;31;9483;-59
2022/06/09 21:43:48;;;;;;;;;23.00;21.33;;;;;;;;6490324;39;8899;-59
2022/06/09 21:49:50;;;;;;;;;20.67;18.67;;;;;;;;6490246;46;8982;-59
2022/06/09 21:55:52;;;;;;;;;23.00;18.33;;;;;;;;6489994;39;8886;-58
2022/06/09 22:01:54;;;;;;;;;23.00;18.67;;;;;;;;6489772;31;8990;-59
2022/06/09 22:07:56;;;;;;;;;20.33;17.67;;;;;;;;6490017;39;8908;-58
2022/06/09 22:13:59;;;;;;;;;19.00;18.00;;;;;;;;6489908;39;8865;-59
2022/06/09 22:20:06;;;;;;;;;19.00;19.00;;;;;;;;6491766;46;8968;-58
2022/06/09 22:26:09;;;;;;;;;21.33;21.00;;;;;;;;6492071;39;8862;-59
2022/06/09 22:32:11;;;;;;;;;22.00;22.00;;;;;;;;6492337;39;8872;-58
2022/06/09 22:38:14;;;;;;;;;23.67;23.33;;;;;;;;6491426;31;8917;-59
2022/06/09 22:44:16;;;;;;;;;24.00;21.00;;;;;;;;6491593;39;8899;-58
2022/06/09 22:50:24;;;;;;;;;22.00;20.00;;;;;;;;6492085;36;8860;-59
2022/06/09 22:56:28;;;;;;;;;18.67;16.00;;;;;;;;6491477;31;8859;-60
2022/06/09 23:02:32;;;;;;;;;26.67;23.00;;;;;;;;6492411;39;10008;-59
2022/06/09 23:08:38;;;;;;;;;26.00;24.00;;;;;;;;6491096;46;8951;-61
2022/06/09 23:14:40;;;;;;;;;25.33;23.67;;;;;;;;6490717;39;8875;-60
2022/06/09 23:20:42;;;;;;;;;24.33;23.00;;;;;;;;6491778;39;8979;-58
2022/06/09 23:26:44;;;;;;;;;23.33;23.33;;;;;;;;6491396;39;8941;-59
2022/06/09 23:32:47;;;;;;;;;21.00;20.00;;;;;;;;6490829;39;8933;-58
2022/06/09 23:38:49;;;;;;;;;30.33;28.00;;;;;;;;6490419;31;8958;-59
2022/06/09 23:51:19;;;;;;;;;24.00;22.67;;;;;;;;6491242;39;8910;-60
2022/06/09 23:57:22;;;;;;;;;26.67;24.33;;;;;;;;6491954;39;9515;-57
